Time;durP1;ratioP1;P1;durP2;ratioP2;P2;SDS_P1;SDS_P2;PMS_P1;PMS_P2;Temp;Humidity;BMP_temperature;BMP_pressure;BME280_temperature;BME280_humidity;BME280_pressure;Samples;Min_cycle;Max_cycle;Signal;HPM_P1;HPM_P2
2023/04/17 00:00:32;;;;;;;29.08;22.27;;;;;;;7.86;100.00;102416.22;4987365;28;20045;-64
2023/04/17 00:03:00;;;;;;;29.23;22.20;;;;;;;7.87;100.00;102412.88;4989116;28;20026;-64
2023/04/17 00:05:26;;;;;;;31.35;22.20;;;;;;;7.88;100.00;102414.66;4988571;28;20038;-63
2023/04/17 00:07:53;;;;;;;29.92;22.95;;;;;;;7.87;100.00;102405.13;4988937;28;20427;-64
2023/04/17 00:10:18;;;;;;;30.63;23.08;;;;;;;7.88;100.00;102408.63;4989028;28;20501;-64
2023/04/17 00:12:44;;;;;;;35.65;24.85;;;;;;;7.87;100.00;102412.88;4989404;28;20045;-63
2023/04/17 00:15:09;;;;;;;30.02;22.80;;;;;;;7.86;100.00;102398.16;4987637;28;20051;-64
2023/04/17 00:17:35;;;;;;;29.23;22.38;;;;;;;7.86;100.00;102402.44;4976501;28;20037;-64
2023/04/17 00:20:00;;;;;;;27.45;22.30;;;;;;;7.85;100.00;102398.97;4979606;28;20037;-63
2023/04/17 00:22:26;;;;;;;29.65;22.50;;;;;;;7.87;100.00;102397.38;4986358;28;20090;-64
2023/04/17 00:24:51;;;;;;;29.73;23.30;;;;;;;7.87;100.00;102391.31;4988259;28;20359;-63
2023/04/17 00:27:16;;;;;;;31.55;23.67;;;;;;;7.87;100.00;102388.75;4987622;28;20517;-63
2023/04/17 00:29:41;;;;;;;28.55;23.15;;;;;;;7.87;100.00;102397.38;4988042;28;20096;-63
2023/04/17 00:32:07;;;;;;;26.27;21.60;;;;;;;7.87;100.00;102387.06;4986885;28;20049;-63
2023/04/17 00:34:32;;;;;;;30.42;21.88;;;;;;;7.86;100.00;102390.41;4988974;28;20022;-63
2023/04/17 00:36:58;;;;;;;26.23;22.35;;;;;;;7.86;100.00;102393.00;4974161;28;20113;-65
2023/04/17 00:39:23;;;;;;;25.83;21.73;;;;;;;7.87;100.00;102392.22;4987997;28;20026;-63
2023/04/17 00:41:49;;;;;;;28.60;22.38;;;;;;;7.84;100.00;102399.75;4987732;28;20096;-63
2023/04/17 00:44:14;;;;;;;30.55;23.48;;;;;;;7.83;100.00;102402.22;4988633;28;20084;-64
2023/04/17 00:46:40;;;;;;;31.45;22.30;;;;;;;7.80;100.00;102395.16;4980783;28;20118;-63
2023/04/17 00:49:05;;;;;;;29.38;23.08;;;;;;;7.80;100.00;102388.34;4981064;28;20034;-64
2023/04/17 00:51:32;;;;;;;29.83;23.58;;;;;;;7.79;100.00;102383.03;4987647;28;20033;-64
2023/04/17 00:53:59;;;;;;;28.75;23.20;;;;;;;7.77;100.00;102385.53;4985163;28;20386;-64
2023/04/17 00:56:24;;;;;;;30.48;23.33;;;;;;;7.76;100.00;102381.16;4987476;28;20064;-64
2023/04/17 00:58:50;;;;;;;31.33;23.65;;;;;;;7.74;100.00;102385.31;4985500;28;20406;-63
2023/04/17 01:01:16;;;;;;;27.73;23.13;;;;;;;7.73;100.00;102386.13;4987619;28;20026;-63
2023/04/17 01:03:42;;;;;;;31.00;22.17;;;;;;;7.72;100.00;102379.16;4984345;28;20026;-63
2023/04/17 01:06:08;;;;;;;31.25;24.90;;;;;;;7.71;100.00;102379.06;4986985;28;20030;-64
2023/04/17 01:08:41;;;;;;;33.42;25.48;;;;;;;7.69;100.00;102382.44;4983443;28;20117;-62
2023/04/17 01:11:07;;;;;;;33.92;26.08;;;;;;;7.68;100.00;102379.75;4986217;28;20096;-63
2023/04/17 01:13:32;;;;;;;31.60;25.23;;;;;;;7.68;100.00;102388.38;4985588;28;20439;-63
2023/04/17 01:15:57;;;;;;;30.17;24.90;;;;;;;7.67;100.00;102384.00;4983492;28;20128;-64
2023/04/17 01:18:23;;;;;;;30.73;23.30;;;;;;;7.68;100.00;102388.38;4980379;28;20034;-64
2023/04/17 01:20:48;;;;;;;29.58;23.92;;;;;;;7.68;100.00;102390.06;4976483;28;20018;-63
2023/04/17 01:23:14;;;;;;;30.52;24.42;;;;;;;7.68;100.00;102390.06;4982795;28;20030;-63
2023/04/17 01:25:39;;;;;;;32.35;23.35;;;;;;;7.69;100.00;102389.28;4987325;28;20026;-64
2023/04/17 01:28:05;;;;;;;30.10;23.33;;;;;;;7.68;100.00;102390.94;4984493;28;20037;-64
2023/04/17 01:30:30;;;;;;;28.45;23.20;;;;;;;7.67;100.00;102384.00;4986009;28;20034;-63
2023/04/17 01:32:55;;;;;;;34.85;24.40;;;;;;;7.67;100.00;102393.44;4983931;28;20030;-64
2023/04/17 01:35:21;;;;;;;33.85;25.10;;;;;;;7.67;100.00;102389.16;4986186;28;20109;-64
2023/04/17 01:37:46;;;;;;;31.30;24.42;;;;;;;7.66;100.00;102392.53;4984307;28;20022;-63
2023/04/17 01:40:12;;;;;;;28.95;23.08;;;;;;;7.67;100.00;102394.34;4986496;28;20161;-63
2023/04/17 01:42:37;;;;;;;30.33;25.05;;;;;;;7.64;100.00;102390.66;4984571;28;20022;-63
2023/04/17 01:45:04;;;;;;;27.52;23.60;;;;;;;7.65;100.00;102385.59;4987110;28;20474;-63
2023/04/17 01:47:29;;;;;;;25.38;22.45;;;;;;;7.65;100.00;102389.84;4973625;28;20117;-64
2023/04/17 01:49:54;;;;;;;28.92;23.15;;;;;;;7.64;100.00;102390.66;4973725;28;20147;-63
2023/04/17 01:52:19;;;;;;;29.65;22.88;;;;;;;7.63;100.00;102392.31;4949515;28;20035;-63
2023/04/17 01:54:45;;;;;;;27.55;23.85;;;;;;;7.63;100.00;102402.63;4949576;28;20035;-64
2023/04/17 01:57:10;;;;;;;26.77;21.67;;;;;;;7.63;100.00;102391.41;4950014;28;20046;-63
2023/04/17 01:59:35;;;;;;;28.80;23.35;;;;;;;7.64;100.00;102393.22;4950081;28;20042;-63
2023/04/17 02:02:00;;;;;;;31.30;22.42;;;;;;;7.61;100.00;102399.06;4949781;28;20086;-63
2023/04/17 02:04:26;;;;;;;27.27;22.33;;;;;;;7.62;100.00;102389.63;4950169;28;20462;-63
2023/04/17 02:06:51;;;;;;;30.55;23.02;;;;;;;7.62;100.00;102395.69;4950990;28;20031;-63
2023/04/17 02:09:17;;;;;;;28.05;21.63;;;;;;;7.60;100.00;102399.84;4950488;28;20031;-64
2023/04/17 02:11:43;;;;;;;25.35;20.17;;;;;;;7.60;100.00;102394.69;4966182;28;20472;-63
2023/04/17 02:14:08;;;;;;;31.45;22.85;;;;;;;7.58;100.00;102396.25;4949721;28;20093;-64
2023/04/17 02:16:33;;;;;;;27.55;22.15;;;;;;;7.60;100.00;102399.84;4964813;28;20042;-64
2023/04/17 02:18:59;;;;;;;31.90;22.88;;;;;;;7.58;100.00;102398.84;4954933;28;20031;-64
2023/04/17 02:21:26;;;;;;;27.38;22.67;;;;;;;7.60;100.00;102398.94;4949384;28;20077;-64
2023/04/17 02:23:52;;;;;;;28.17;22.20;;;;;;;7.60;100.00;102386.06;4951110;28;20637;-64
2023/04/17 02:26:17;;;;;;;27.30;21.27;;;;;;;7.61;100.00;102403.34;4960947;28;20818;-64
2023/04/17 02:28:46;;;;;;;26.20;22.38;;;;;;;7.58;100.00;102391.09;4949846;28;20035;-64
2023/04/17 02:31:12;;;;;;;27.10;20.83;;;;;;;7.58;100.00;102398.84;4957595;28;20042;-63
2023/04/17 02:33:37;;;;;;;27.52;21.45;;;;;;;7.57;100.00;102397.94;4952964;28;20027;-63
2023/04/17 02:36:04;;;;;;;30.30;21.90;;;;;;;7.54;100.00;102387.41;4949590;28;20411;-63
2023/04/17 02:38:29;;;;;;;29.77;23.08;;;;;;;7.53;100.00;102400.22;4961536;28;20030;-63
2023/04/17 02:40:56;;;;;;;24.70;20.73;;;;;;;7.51;100.00;102396.63;4958433;28;20467;-63
2023/04/17 02:43:21;;;;;;;29.25;22.52;;;;;;;7.51;100.00;102394.06;4953352;28;20038;-64
2023/04/17 02:45:46;;;;;;;27.58;22.40;;;;;;;7.50;100.00;102384.53;4949485;28;20146;-64
2023/04/17 02:48:12;;;;;;;30.27;22.45;;;;;;;7.49;100.00;102398.19;4961914;28;20033;-63
2023/04/17 02:50:37;;;;;;;29.88;22.48;;;;;;;7.49;100.00;102395.63;4959177;28;20039;-63
2023/04/17 02:53:02;;;;;;;30.35;22.52;;;;;;;7.49;100.00;102399.09;4973791;28;20084;-63
2023/04/17 02:55:28;;;;;;;30.55;22.52;;;;;;;7.49;100.00;102400.78;4958668;28;20078;-63
2023/04/17 02:57:53;;;;;;;30.88;22.50;;;;;;;7.47;100.00;102402.34;4962090;28;20027;-63
2023/04/17 03:00:19;;;;;;;32.38;24.00;;;;;;;7.47;100.00;102402.34;4959342;28;20116;-64
2023/04/17 03:02:45;;;;;;;30.05;22.75;;;;;;;7.46;100.00;102398.91;4969997;28;20424;-64
2023/04/17 03:05:13;;;;;;;28.30;23.25;;;;;;;7.45;100.00;102404.84;4965968;28;20483;-64
2023/04/17 03:07:39;;;;;;;31.30;22.80;;;;;;;7.43;100.00;102404.72;4970903;28;20471;-63
2023/04/17 03:10:05;;;;;;;31.70;23.60;;;;;;;7.41;100.00;102406.28;4974583;28;20103;-64
2023/04/17 03:12:30;;;;;;;29.63;23.42;;;;;;;7.36;100.00;102407.66;4970909;28;20031;-63
2023/04/17 03:14:56;;;;;;;30.50;24.08;;;;;;;7.33;100.00;102408.34;4967538;28;20051;-63
2023/04/17 03:17:21;;;;;;;33.00;24.55;;;;;;;7.30;100.00;102407.25;4975351;28;20019;-64
2023/04/17 03:19:46;;;;;;;33.20;23.83;;;;;;;7.30;100.00;102413.28;4967890;28;20063;-63
2023/04/17 03:22:13;;;;;;;28.60;23.17;;;;;;;7.30;100.00;102409.81;4969558;28;20049;-63
2023/04/17 03:24:40;;;;;;;32.30;23.67;;;;;;;7.28;100.00;102409.72;4964949;28;20031;-64
2023/04/17 03:27:05;;;;;;;31.30;23.33;;;;;;;7.27;100.00;102407.00;4968152;28;20315;-63
2023/04/17 03:29:30;;;;;;;30.05;23.35;;;;;;;7.26;100.00;102405.22;4965965;28;20450;-64
2023/04/17 03:31:55;;;;;;;33.13;24.60;;;;;;;7.27;100.00;102407.00;4967690;28;20023;-64
2023/04/17 03:34:21;;;;;;;29.50;24.45;;;;;;;7.27;100.00;102412.16;4960861;28;20073;-63
2023/04/17 03:36:47;;;;;;;34.22;24.75;;;;;;;7.26;100.00;102405.22;4974860;28;20019;-63
2023/04/17 03:39:12;;;;;;;33.10;23.75;;;;;;;7.25;100.00;102404.31;4965464;28;20035;-63
2023/04/17 03:41:37;;;;;;;33.03;24.13;;;;;;;7.24;100.00;102401.63;4974275;28;20110;-64
2023/04/17 03:44:04;;;;;;;34.22;24.83;;;;;;;7.25;100.00;102400.88;4965644;28;20424;-63
2023/04/17 03:46:29;;;;;;;31.38;23.30;;;;;;;7.26;100.00;102402.66;4965252;28;20113;-63
2023/04/17 03:48:54;;;;;;;31.00;23.67;;;;;;;7.25;100.00;102406.03;4958438;28;20453;-63
2023/04/17 03:51:20;;;;;;;30.52;23.85;;;;;;;7.24;100.00;102396.47;4964015;28;20035;-63
2023/04/17 03:53:45;;;;;;;27.77;23.05;;;;;;;7.23;100.00;102400.75;4964699;28;20035;-64
2023/04/17 03:56:10;;;;;;;33.47;24.55;;;;;;;7.21;100.00;102398.06;4989599;28;20034;-63
2023/04/17 03:58:36;;;;;;;29.13;24.95;;;;;;;7.21;100.00;102403.22;4989715;28;20506;-63
2023/04/17 04:01:01;;;;;;;32.05;25.20;;;;;;;7.21;100.00;102403.22;4976910;28;20047;-63
2023/04/17 04:03:27;;;;;;;34.28;25.48;;;;;;;7.17;100.00;102398.63;4951840;28;20128;-63
2023/04/17 04:05:53;;;;;;;34.20;25.50;;;;;;;7.17;100.00;102408.03;4952674;28;20031;-63
2023/04/17 04:08:18;;;;;;;33.10;25.83;;;;;;;7.16;100.00;102404.56;4952183;28;20034;-63
2023/04/17 04:10:44;;;;;;;34.20;26.77;;;;;;;7.16;100.00;102409.72;4952018;28;20130;-63
2023/04/17 04:13:10;;;;;;;31.55;24.95;;;;;;;7.16;100.00;102404.56;4964968;28;20030;-63
2023/04/17 04:15:36;;;;;;;31.52;24.30;;;;;;;7.15;100.00;102400.22;4951174;28;20106;-64
2023/04/17 04:18:01;;;;;;;30.42;23.92;;;;;;;7.13;100.00;102401.78;4968540;28;20038;-64
2023/04/17 04:20:27;;;;;;;33.72;25.20;;;;;;;7.12;100.00;102406.81;4957768;28;20015;-63
2023/04/17 04:22:52;;;;;;;32.45;24.90;;;;;;;7.10;100.00;102409.31;4963243;28;20327;-63
2023/04/17 04:25:18;;;;;;;32.13;24.83;;;;;;;7.11;100.00;102411.06;4988763;28;20475;-64
2023/04/17 04:27:48;;;;;;;31.77;24.50;;;;;;;7.12;100.00;102410.31;4989073;28;20105;-64
2023/04/17 04:30:15;;;;;;;33.33;25.38;;;;;;;7.12;100.00;102407.72;4988623;28;20026;-63
2023/04/17 04:32:41;;;;;;;34.63;26.00;;;;;;;7.12;100.00;102409.41;4989276;28;20076;-64
2023/04/17 04:35:07;;;;;;;33.00;25.35;;;;;;;7.14;100.00;102416.44;4987860;28;20038;-63
2023/04/17 04:37:32;;;;;;;34.35;25.48;;;;;;;7.14;100.00;102418.16;4989025;28;20050;-63
2023/04/17 04:40:09;;;;;;;34.17;25.60;;;;;;;7.14;100.00;102420.72;4987793;28;20030;-64
2023/04/17 04:42:38;;;;;;;37.22;27.17;;;;;;;7.13;100.00;102427.56;4986722;28;20022;-63
2023/04/17 04:45:05;;;;;;;33.53;26.60;;;;;;;7.14;100.00;102425.88;4974583;28;20029;-63
2023/04/17 04:47:30;;;;;;;35.63;27.10;;;;;;;7.14;100.00;102415.56;4971790;28;20092;-64
2023/04/17 04:49:55;;;;;;;32.85;25.08;;;;;;;7.12;100.00;102418.03;4948926;28;20365;-64
2023/04/17 04:52:21;;;;;;;35.67;27.10;;;;;;;7.12;100.00;102425.78;4949172;28;20037;-63
2023/04/17 04:54:49;;;;;;;34.42;26.27;;;;;;;7.13;100.00;102424.97;4948675;28;20495;-64
2023/04/17 04:57:14;;;;;;;37.35;27.23;;;;;;;7.13;100.00;102424.06;4948146;28;20035;-63
2023/04/17 04:59:40;;;;;;;38.20;27.27;;;;;;;7.14;100.00;102424.19;4964802;28;20454;-63
2023/04/17 05:02:05;;;;;;;37.33;26.90;;;;;;;7.14;100.00;102426.75;4969551;28;20114;-65
2023/04/17 05:04:30;;;;;;;37.55;27.83;;;;;;;7.15;100.00;102427.66;4949719;28;20023;-63
2023/04/17 05:06:58;;;;;;;35.85;26.38;;;;;;;7.16;100.00;102430.34;4950889;28;20027;-62
2023/04/17 05:09:23;;;;;;;38.15;26.42;;;;;;;7.15;100.00;102438.88;4950305;28;20030;-63
2023/04/17 05:11:49;;;;;;;42.45;28.02;;;;;;;7.15;100.00;102444.03;4962947;28;20035;-64
2023/04/17 05:14:14;;;;;;;37.33;28.27;;;;;;;7.13;100.00;102440.44;4950592;28;20055;-64
2023/04/17 05:16:40;;;;;;;36.33;28.60;;;;;;;7.14;100.00;102438.78;4958242;28;20038;-63
2023/04/17 05:19:05;;;;;;;40.70;29.02;;;;;;;7.14;100.00;102436.19;4957143;28;20027;-63
2023/04/17 05:21:31;;;;;;;43.67;29.85;;;;;;;7.12;100.00;102443.84;4968457;28;20535;-63
2023/04/17 05:23:56;;;;;;;42.60;30.17;;;;;;;7.10;100.00;102445.41;4951178;28;20121;-63
2023/04/17 05:26:21;;;;;;;41.10;31.20;;;;;;;7.09;100.00;102443.59;4955355;28;20035;-63
2023/04/17 05:28:47;;;;;;;40.67;29.77;;;;;;;7.11;100.00;102451.41;4962666;28;20027;-63
2023/04/17 05:31:13;;;;;;;38.22;28.90;;;;;;;7.11;100.00;102448.84;4965132;28;20034;-63
2023/04/17 05:33:38;;;;;;;39.10;29.60;;;;;;;7.10;100.00;102445.41;4962794;28;20035;-63
2023/04/17 05:36:03;;;;;;;43.75;32.17;;;;;;;7.09;100.00;102447.06;4972749;28;20347;-63
2023/04/17 05:38:29;;;;;;;39.10;28.65;;;;;;;7.10;100.00;102455.72;4978530;28;20113;-64
2023/04/17 05:40:54;;;;;;;46.42;31.30;;;;;;;7.08;100.00;102457.28;4964363;28;20098;-63
2023/04/17 05:43:20;;;;;;;38.92;30.00;;;;;;;7.08;100.00;102454.69;4963364;28;20023;-63
2023/04/17 05:45:46;;;;;;;45.97;31.80;;;;;;;7.08;100.00;102454.69;4964701;28;20474;-62
2023/04/17 05:48:11;;;;;;;45.17;31.23;;;;;;;7.07;100.00;102460.63;4963011;28;20037;-63
2023/04/17 05:50:37;;;;;;;44.38;31.77;;;;;;;7.05;100.00;102457.94;4962922;28;20043;-64
2023/04/17 05:53:03;;;;;;;39.35;29.45;;;;;;;7.07;100.00;102455.47;4974628;28;20022;-63
2023/04/17 05:55:28;;;;;;;45.80;31.40;;;;;;;7.06;100.00;102466.56;4968874;28;20031;-65
2023/04/17 05:57:54;;;;;;;46.33;32.38;;;;;;;7.05;100.00;102462.22;4980787;28;20038;-63
2023/04/17 06:00:21;;;;;;;49.58;32.75;;;;;;;7.06;100.00;102464.00;4972739;28;20071;-64
2023/04/17 06:02:47;;;;;;;45.80;32.45;;;;;;;7.04;100.00;102461.31;4983472;28;20022;-63
2023/04/17 06:05:12;;;;;;;44.17;31.90;;;;;;;7.07;100.00;102460.63;4970891;28;20034;-63
2023/04/17 06:07:37;;;;;;;48.05;31.35;;;;;;;7.08;100.00;102459.84;4976559;28;20030;-63
2023/04/17 06:10:07;;;;;;;42.50;30.83;;;;;;;7.09;100.00;102465.13;4967803;28;20038;-63
2023/04/17 06:12:33;;;;;;;46.00;32.17;;;;;;;7.10;100.00;102466.03;4972345;28;20434;-63
2023/04/17 06:14:58;;;;;;;46.67;31.40;;;;;;;7.09;100.00;102469.38;4965099;28;20050;-63
2023/04/17 06:17:24;;;;;;;40.88;30.35;;;;;;;7.12;100.00;102469.63;4963597;28;20172;-63
2023/04/17 06:19:49;;;;;;;42.38;31.15;;;;;;;7.13;100.00;102479.13;4953370;28;20023;-63
2023/04/17 06:22:15;;;;;;;42.28;31.15;;;;;;;7.13;100.00;102486.84;4971067;28;20035;-63
2023/04/17 06:24:40;;;;;;;43.38;31.88;;;;;;;7.14;100.00;102483.47;4984043;28;20471;-64
2023/04/17 06:27:05;;;;;;;43.35;31.02;;;;;;;7.14;100.00;102475.75;4973259;28;20447;-64
2023/04/17 06:29:31;;;;;;;44.17;32.10;;;;;;;7.13;100.00;102489.44;4983286;28;20026;-64
2023/04/17 06:31:56;;;;;;;45.38;31.35;;;;;;;7.14;100.00;102487.75;4972791;28;20023;-63
2023/04/17 06:34:21;;;;;;;44.63;32.72;;;;;;;7.14;100.00;102478.31;4980651;28;20030;-64
2023/04/17 06:36:47;;;;;;;39.28;30.35;;;;;;;7.15;100.00;102482.72;4964285;28;20023;-64
2023/04/17 06:39:12;;;;;;;45.10;31.95;;;;;;;7.17;100.00;102486.31;4962546;28;20035;-63
2023/04/17 06:41:38;;;;;;;41.60;32.25;;;;;;;7.20;100.00;102491.69;4962659;28;20070;-64
2023/04/17 06:44:03;;;;;;;41.30;31.17;;;;;;;7.20;100.00;102494.25;4961800;28;20023;-64
2023/04/17 06:46:28;;;;;;;40.67;29.90;;;;;;;7.23;100.00;102492.69;4964920;28;20245;-64
2023/04/17 06:48:56;;;;;;;41.78;29.38;;;;;;;7.27;100.00;102498.16;4972240;28;20038;-64
2023/04/17 06:51:24;;;;;;;38.35;28.80;;;;;;;7.29;100.00;102493.13;4982716;28;20031;-63
2023/04/17 06:53:49;;;;;;;37.35;28.85;;;;;;;7.32;100.00;102498.53;4983033;28;20034;-63
2023/04/17 06:56:15;;;;;;;40.47;30.10;;;;;;;7.35;100.00;102496.16;4990746;28;20032;-63
2023/04/17 06:58:43;;;;;;;40.47;30.63;;;;;;;7.36;100.00;102499.63;4988026;28;20038;-63
2023/04/17 07:01:12;;;;;;;38.05;29.95;;;;;;;7.38;100.00;102495.47;4989873;28;20501;-64
2023/04/17 07:03:39;;;;;;;40.33;30.10;;;;;;;7.37;100.00;102502.31;4960995;28;20520;-64
2023/04/17 07:06:04;;;;;;;41.17;31.05;;;;;;;7.36;100.00;102510.81;4953216;28;20043;-64
2023/04/17 07:08:30;;;;;;;42.45;31.02;;;;;;;7.38;100.00;102513.50;4955838;28;20102;-63
2023/04/17 07:10:55;;;;;;;40.83;30.35;;;;;;;7.38;100.00;102510.94;4986542;28;20030;-63
2023/04/17 07:13:20;;;;;;;40.15;30.10;;;;;;;7.38;100.00;102511.84;4980405;28;20109;-64
2023/04/17 07:15:53;;;;;;;37.03;28.73;;;;;;;7.40;100.00;102517.09;4971563;28;20061;-63
2023/04/17 07:18:18;;;;;;;41.70;29.45;;;;;;;7.42;100.00;102520.69;4978721;28;20119;-63
2023/04/17 07:20:44;;;;;;;42.95;30.95;;;;;;;7.44;100.00;102526.88;4988868;28;20144;-63
2023/04/17 07:23:09;;;;;;;40.35;29.90;;;;;;;7.44;100.00;102525.19;4989253;28;20022;-65
2023/04/17 07:25:35;;;;;;;39.63;30.60;;;;;;;7.45;100.00;102529.56;4977424;28;20495;-64
2023/04/17 07:28:00;;;;;;;37.45;30.60;;;;;;;7.47;100.00;102528.75;4984525;28;20037;-64
2023/04/17 07:30:25;;;;;;;42.22;29.33;;;;;;;7.50;100.00;102539.31;4984765;28;20031;-64
2023/04/17 07:32:51;;;;;;;39.28;31.38;;;;;;;7.52;100.00;102532.59;4978809;28;20034;-63
2023/04/17 07:35:16;;;;;;;36.42;29.73;;;;;;;7.54;100.00;102533.56;4977159;28;20143;-63
2023/04/17 07:37:42;;;;;;;39.67;29.98;;;;;;;7.58;100.00;102533.00;4968685;28;20041;-64
2023/04/17 07:40:09;;;;;;;39.28;31.23;;;;;;;7.63;100.00;102539.41;4955605;28;20162;-64
2023/04/17 07:42:35;;;;;;;42.10;30.85;;;;;;;7.65;100.00;102534.34;4953614;28;20101;-63
2023/04/17 07:45:00;;;;;;;41.40;30.10;;;;;;;7.67;100.00;102538.84;4953770;28;20538;-63
2023/04/17 07:47:25;;;;;;;40.95;31.60;;;;;;;7.70;100.00;102540.72;4958236;28;20015;-63
2023/04/17 07:49:51;;;;;;;43.78;32.28;;;;;;;7.72;100.00;102540.84;4964615;28;20118;-64
2023/04/17 07:52:16;;;;;;;40.20;31.33;;;;;;;7.73;100.00;102535.81;4951900;28;20031;-63
2023/04/17 07:54:42;;;;;;;41.63;31.63;;;;;;;7.75;100.00;102530.75;4965543;28;20026;-63
2023/04/17 07:57:08;;;;;;;39.67;31.55;;;;;;;7.77;100.00;102534.34;4960788;28;20517;-65
2023/04/17 07:59:33;;;;;;;40.63;30.63;;;;;;;7.79;100.00;102538.81;4965250;28;20031;-63
2023/04/17 08:01:58;;;;;;;42.42;31.55;;;;;;;7.84;100.00;102539.16;4954738;28;20035;-64
2023/04/17 08:04:24;;;;;;;38.08;30.83;;;;;;;7.89;100.00;102540.38;4952725;28;21010;-64
2023/04/17 08:06:50;;;;;;;37.03;28.92;;;;;;;7.96;100.00;102546.84;4978822;28;20058;-64
2023/04/17 08:09:15;;;;;;;41.80;29.83;;;;;;;8.00;100.00;102542.78;4961890;28;20069;-63
2023/04/17 08:11:42;;;;;;;36.08;29.50;;;;;;;8.04;100.00;102544.81;4981679;28;20023;-63
2023/04/17 08:14:07;;;;;;;38.05;28.95;;;;;;;8.05;100.00;102542.34;4963551;28;20059;-64
2023/04/17 08:16:33;;;;;;;36.65;28.63;;;;;;;8.11;100.00;102544.41;4952404;28;20056;-63
2023/04/17 08:18:58;;;;;;;31.05;26.67;;;;;;;8.16;100.00;102553.41;4955203;28;20027;-63
2023/04/17 08:21:23;;;;;;;36.45;27.73;;;;;;;8.21;100.00;102543.38;4963210;28;20054;-64
2023/04/17 08:23:49;;;;;;;35.45;28.20;;;;;;;8.25;100.00;102550.56;4969333;28;20446;-63
2023/04/17 08:26:17;;;;;;;35.10;27.65;;;;;;;8.33;100.00;102543.31;4969816;28;20027;-63
2023/04/17 08:28:43;;;;;;;31.30;26.33;;;;;;;8.40;100.00;102553.28;4969925;28;20106;-63
2023/04/17 08:31:09;;;;;;;32.17;25.23;;;;;;;8.46;100.00;102551.91;4969184;28;20559;-63
2023/04/17 08:33:35;;;;;;;31.00;25.85;;;;;;;8.47;100.00;102549.44;4969685;28;20039;-64
2023/04/17 08:36:00;;;;;;;29.63;25.30;;;;;;;8.52;100.00;102549.75;4969199;28;20023;-64
2023/04/17 08:38:27;;;;;;;33.75;27.42;;;;;;;8.55;100.00;102555.13;4969830;28;20058;-64
2023/04/17 08:40:57;;;;;;;31.20;25.27;;;;;;;8.56;100.00;102556.06;4969115;28;20034;-63
2023/04/17 08:43:27;;;;;;;32.67;27.50;;;;;;;8.53;100.00;102561.88;4957802;28;20498;-64
2023/04/17 08:45:54;;;;;;;32.35;26.55;;;;;;;8.49;100.00;102559.91;4967438;28;20034;-64
2023/04/17 08:48:20;;;;;;;34.28;27.40;;;;;;;8.48;100.00;102552.91;4955955;28;20107;-64
2023/04/17 08:50:49;;;;;;;35.95;26.17;;;;;;;8.50;100.00;102556.50;4963883;28;20031;-65
2023/04/17 08:53:16;;;;;;;30.05;24.38;;;;;;;8.55;100.00;102551.63;4965458;28;20416;-64
2023/04/17 08:55:42;;;;;;;30.90;25.60;;;;;;;8.59;100.00;102551.09;4965334;28;20042;-65
2023/04/17 08:58:08;;;;;;;33.25;28.17;;;;;;;8.64;100.00;102550.63;4975383;28;20128;-64
2023/04/17 09:00:37;;;;;;;33.90;25.80;;;;;;;8.70;100.00;102551.81;4961132;28;20106;-64
2023/04/17 09:03:12;;;;;;;32.03;25.88;;;;;;;8.73;100.00;102555.50;4965766;28;20455;-64
2023/04/17 09:05:44;;;;;;;33.00;27.35;;;;;;;8.77;100.00;102561.78;4961256;28;20039;-63
2023/04/17 09:08:22;;;;;;;32.72;26.23;;;;;;;8.84;100.00;102558.81;4954994;28;20033;-64
2023/04/17 09:10:52;;;;;;;37.25;25.75;;;;;;;8.91;100.00;102556.63;4956278;28;20022;-63
2023/04/17 09:13:20;;;;;;;34.65;25.35;;;;;;;8.97;100.00;102555.38;4964972;28;20023;-63
2023/04/17 09:16:02;;;;;;;31.10;26.13;;;;;;;9.01;100.00;102551.28;4966244;28;20050;-64
2023/04/17 09:18:31;;;;;;;30.55;26.17;;;;;;;9.05;100.00;102553.25;4970436;28;20396;-64
2023/04/17 09:20:58;;;;;;;33.85;26.73;;;;;;;9.09;100.00;102563.03;4966172;28;20105;-64
2023/04/17 09:23:25;;;;;;;30.08;26.05;;;;;;;9.16;100.00;102563.41;4961833;28;20027;-63
2023/04/17 09:26:13;;;;;;;31.08;25.20;;;;;;;9.26;100.00;102568.41;4977530;28;20054;-64
2023/04/17 09:28:39;;;;;;;30.38;24.85;;;;;;;9.39;100.00;102561.44;4963584;28;20018;-64
2023/04/17 09:31:25;;;;;;;31.27;27.42;;;;;;;9.48;100.00;102562.00;4953491;28;20042;-64
2023/04/17 09:34:06;;;;;;;29.88;25.70;;;;;;;9.59;100.00;102555.84;4952532;28;20030;-65
2023/04/17 09:36:37;;;;;;;28.90;24.20;;;;;;;9.72;100.00;102554.03;4961691;28;20027;-64
2023/04/17 09:39:16;;;;;;;29.35;25.38;;;;;;;9.79;100.00;102556.22;4968630;28;20023;-64
2023/04/17 09:41:42;;;;;;;32.15;24.75;;;;;;;9.86;100.00;102552.31;4967797;28;20375;-64
2023/04/17 09:44:08;;;;;;;29.75;25.13;;;;;;;9.94;100.00;102547.63;4963816;28;20031;-63
2023/04/17 09:46:37;;;;;;;27.58;23.75;;;;;;;10.03;100.00;102558.56;4969157;28;20129;-64
2023/04/17 09:49:23;;;;;;;28.92;24.77;;;;;;;10.19;100.00;102551.72;4965156;28;20041;-64
2023/04/17 09:51:48;;;;;;;27.73;24.15;;;;;;;10.29;100.00;102563.56;4974019;28;20046;-64
2023/04/17 09:54:15;;;;;;;29.83;23.85;;;;;;;10.36;100.00;102565.69;4961940;28;20031;-64
2023/04/17 09:56:42;;;;;;;25.98;23.08;;;;;;;10.51;100.00;102560.56;4963057;28;20059;-64
2023/04/17 09:59:08;;;;;;;26.27;23.45;;;;;;;10.60;100.00;102564.50;4970363;28;20027;-64
2023/04/17 10:01:36;;;;;;;30.95;24.92;;;;;;;10.66;100.00;102562.28;4964957;28;20034;-64
2023/04/17 10:04:03;;;;;;;27.63;24.08;;;;;;;10.70;100.00;102556.50;4968875;28;20101;-64
2023/04/17 10:06:33;;;;;;;28.70;24.13;;;;;;;10.84;100.00;102546.03;4971608;28;20438;-65
2023/04/17 10:08:59;;;;;;;31.05;24.73;;;;;;;11.04;100.00;102553.25;4966668;28;20026;-64
2023/04/17 10:11:30;;;;;;;30.05;23.90;;;;;;;11.33;100.00;102550.53;4977373;28;20049;-64
2023/04/17 10:14:16;;;;;;;25.15;22.45;;;;;;;11.56;100.00;102553.53;4974436;28;20081;-63
2023/04/17 10:16:42;;;;;;;27.58;22.20;;;;;;;11.65;100.00;102547.94;4957620;28;20396;-65
2023/04/17 10:19:23;;;;;;;28.83;23.10;;;;;;;11.66;100.00;102549.72;4973924;28;20018;-64
2023/04/17 10:22:17;;;;;;;29.35;22.85;;;;;;;11.63;100.00;102544.38;4960004;28;20420;-64
2023/04/17 10:25:14;;;;;;;26.95;22.95;;;;;;;11.66;100.00;102544.53;4955601;28;20027;-63
2023/04/17 10:27:39;;;;;;;27.48;22.95;;;;;;;11.86;100.00;102539.53;4963922;28;20082;-63
2023/04/17 10:30:11;;;;;;;27.25;22.33;;;;;;;12.07;100.00;102544.09;4955093;28;20027;-63
2023/04/17 10:32:38;;;;;;;27.50;23.25;;;;;;;12.06;98.63;102548.38;4958650;28;20014;-63
2023/04/17 10:35:15;;;;;;;23.67;21.10;;;;;;;12.10;98.55;102542.59;4970416;28;20039;-63
2023/04/17 10:37:46;;;;;;;28.40;21.98;;;;;;;12.31;100.00;102546.22;4957244;28;20023;-63
2023/04/17 10:40:19;;;;;;;25.38;22.67;;;;;;;12.49;99.06;102549.78;4970929;28;20022;-64
2023/04/17 10:43:00;;;;;;;24.10;21.38;;;;;;;12.85;98.39;102550.66;4964401;28;20649;-64
2023/04/17 10:45:51;;;;;;;25.67;22.38;;;;;;;13.15;94.37;102539.09;4950982;28;20031;-64
2023/04/17 10:48:27;;;;;;;22.95;20.50;;;;;;;13.25;93.63;102541.31;4951152;28;20050;-63
2023/04/17 10:50:54;;;;;;;26.10;21.88;;;;;;;13.29;92.30;102539.75;4963750;28;20034;-64
2023/04/17 10:53:40;;;;;;;23.92;21.35;;;;;;;13.15;91.78;102539.97;4962046;28;20113;-64
2023/04/17 10:56:06;;;;;;;24.48;21.67;;;;;;;13.09;90.74;102540.59;4956571;28;20027;-64
2023/04/17 10:58:32;;;;;;;24.80;21.48;;;;;;;13.11;92.48;102539.75;4955247;28;20082;-65
2023/04/17 11:01:02;;;;;;;23.38;20.83;;;;;;;13.19;92.01;102531.50;4964589;28;20015;-64
2023/04/17 11:03:28;;;;;;;24.05;20.92;;;;;;;13.31;90.43;102519.91;4964896;28;20494;-63
2023/04/17 11:05:54;;;;;;;23.95;21.30;;;;;;;13.52;90.91;102526.94;4959889;28;20311;-63
2023/04/17 11:08:21;;;;;;;24.00;21.55;;;;;;;13.72;92.05;102521.78;4964651;28;20468;-64